Weather at Fürstenfeld Airport

Public forecast

Using degrees Celsius for public forecast. Weather courtesy of forecast.io.

Closest aviation weather report (METAR) to Fürstenfeld Airport

Report is more than 6 hours old.

Closest report is Punitz-Güssing Airport, 10.8 nm (20.0 km) ENE. Retrieved 2010/03/18 11:00 UTC (12 years ago):

LOGG 181100Z 18004KT 30KM FEW050CU BKN120AC RMK BKN

Closest aviation forecast (TAF) to Fürstenfeld Airport

Closest forecast is Graz Airport, 26.7 nm (49.5 km) W. Retrieved 2021-11-29 00:24 UTC (4 hours ago):

TAF TAF LOWG 282315Z 2900/2924 VRB05KT 6000 FEW003 BKN012 TX04/2914Z TNM05/2924Z TEMPO 2900/2905 0500 SN -SNRA BCFG VV003 TEMPO 2905/2909 0500 BCFG BKN004 BECMG 2909/2911 9999 FEW030 TEMPO 2912/2918 34012KT